Main page
METAR-TAF:

METAR-TAF

Airports :

Al Maktoum International Airport

Dubai, United Arab Emirates

latitude: 24-53-49N, longitude: 55-09-40E, elevation: 35 m

Current weather observation

The report was made 1 hour and 3 minutes ago, at 19:00 UTC
Wind 5 kt from the East/Southeast
Temperature 31°C
Humidity 79%
Pressure 998 hPa
Visibility: 7000 m

METAR: OMDW 251900Z 12005KT 7000 NSC 31/27 Q0998 NOSIG

Time: 00:03 (20:03 UTC)

Forecast

The report was made 3 hours and 3 minutes ago, at 17:00 UTC
Forecast valid from 25 at 18 UTC to 27 at 00 UTC
Wind 7 kt from the South
Visibility: 6000 m
Probability 30%
from 25 at 22 UTC to 26 at 04 UTC
Visibility: 3000 m
haze
Becoming
from 26 at 07 UTC to 26 at 09 UTC
Wind 14 kt from the West/Northwest
Becoming
from 26 at 16 UTC to 26 at 18 UTC
Wind 5 kt from the South
Probability 30%
from 26 at 22 UTC to 27 at 00 UTC
Visibility: 4000 m
haze

TAF: OMDW 251700Z 2518/2700 17007KT 6000 NSC PROB30 2522/2604 3000 HZ BECMG 2607/2609 30014KT BECMG 2616/2618 18005KT PROB30 2622/2700 4000 HZ

Weather observations and forecasts of more than 4000 airports (METAR and TAF reports).

The available stations are represented by yellow and red dots on the map.

Hover mouse over dot to see the name of the station.

Then click to see weather observations and forecasts.

To change the map : click on the green buttons with a black cross to zoom in, on the green button with a dash to zoom out, or on the green arrows for adjacent maps.


METAR-TAF: